sensor_id;sensor_type;location;lat;lon;timestamp;temperature;humidity
38902;DHT22;24661;53.566;9.910;2023-02-23T00:01:17;8.00;99.90
38902;DHT22;24661;53.566;9.910;2023-02-23T00:03:44;8.00;99.90
38902;DHT22;24661;53.566;9.910;2023-02-23T00:06:10;8.00;99.90
38902;DHT22;24661;53.566;9.910;2023-02-23T00:08:37;8.00;99.90
38902;DHT22;24661;53.566;9.910;2023-02-23T00:11:08;9.70;99.90
38902;DHT22;24661;53.566;9.910;2023-02-23T00:13:36;7.90;99.90
38902;DHT22;24661;53.566;9.910;2023-02-23T00:16:07;7.90;99.90
38902;DHT22;24661;53.566;9.910;2023-02-23T00:18:34;7.90;99.90
38902;DHT22;24661;53.566;9.910;2023-02-23T00:21:22;7.90;99.90
38902;DHT22;24661;53.566;9.910;2023-02-23T00:23:54;7.80;99.90
38902;DHT22;24661;53.566;9.910;2023-02-23T00:26:21;7.80;99.90
38902;DHT22;24661;53.566;9.910;2023-02-23T00:28:52;7.80;99.90
38902;DHT22;24661;53.566;9.910;2023-02-23T00:31:19;7.80;99.90
38902;DHT22;24661;53.566;9.910;2023-02-23T00:33:53;7.80;99.90
38902;DHT22;24661;53.566;9.910;2023-02-23T00:36:21;7.80;99.90
38902;DHT22;24661;53.566;9.910;2023-02-23T00:38:47;7.80;99.90
38902;DHT22;24661;53.566;9.910;2023-02-23T00:41:17;7.70;99.90
38902;DHT22;24661;53.566;9.910;2023-02-23T00:43:47;7.70;99.90
38902;DHT22;24661;53.566;9.910;2023-02-23T00:46:14;7.70;99.90
38902;DHT22;24661;53.566;9.910;2023-02-23T00:48:43;7.80;99.90
38902;DHT22;24661;53.566;9.910;2023-02-23T00:51:10;7.70;99.90
38902;DHT22;24661;53.566;9.910;2023-02-23T00:53:36;7.70;99.90
38902;DHT22;24661;53.566;9.910;2023-02-23T00:56:06;7.70;99.90
38902;DHT22;24661;53.566;9.910;2023-02-23T00:58:33;7.70;99.90
38902;DHT22;24661;53.566;9.910;2023-02-23T01:00:59;7.70;99.90
38902;DHT22;24661;53.566;9.910;2023-02-23T01:03:26;7.60;99.90
38902;DHT22;24661;53.566;9.910;2023-02-23T01:05:51;7.60;99.90
38902;DHT22;24661;53.566;9.910;2023-02-23T01:08:20;7.60;99.90
38902;DHT22;24661;53.566;9.910;2023-02-23T01:10:46;7.60;99.90
38902;DHT22;24661;53.566;9.910;2023-02-23T01:13:19;7.70;99.90
38902;DHT22;24661;53.566;9.910;2023-02-23T01:15:45;7.70;99.90
38902;DHT22;24661;53.566;9.910;2023-02-23T01:18:13;7.70;99.90
38902;DHT22;24661;53.566;9.910;2023-02-23T01:20:39;7.70;99.90
38902;DHT22;24661;53.566;9.910;2023-02-23T01:23:07;7.70;99.90
38902;DHT22;24661;53.566;9.910;2023-02-23T01:25:35;7.60;99.90
38902;DHT22;24661;53.566;9.910;2023-02-23T01:28:02;7.60;99.90
38902;DHT22;24661;53.566;9.910;2023-02-23T01:30:28;7.60;99.90
38902;DHT22;24661;53.566;9.910;2023-02-23T01:32:54;7.60;99.90
38902;DHT22;24661;53.566;9.910;2023-02-23T01:35:19;7.50;99.90
38902;DHT22;24661;53.566;9.910;2023-02-23T01:37:46;7.50;99.90
38902;DHT22;24661;53.566;9.910;2023-02-23T01:40:19;7.60;99.90
38902;DHT22;24661;53.566;9.910;2023-02-23T01:43:05;7.50;99.90
38902;DHT22;24661;53.566;9.910;2023-02-23T01:45:37;7.50;99.90
38902;DHT22;24661;53.566;9.910;2023-02-23T01:48:19;7.50;99.90
38902;DHT22;24661;53.566;9.910;2023-02-23T01:50:53;7.50;99.90
38902;DHT22;24661;53.566;9.910;2023-02-23T01:53:20;7.50;99.90
38902;DHT22;24661;53.566;9.910;2023-02-23T01:55:49;7.60;99.90
38902;DHT22;24661;53.566;9.910;2023-02-23T01:58:17;7.60;99.90
38902;DHT22;24661;53.566;9.910;2023-02-23T02:00:53;7.60;99.90
38902;DHT22;24661;53.566;9.910;2023-02-23T02:03:32;7.60;99.90
38902;DHT22;24661;53.566;9.910;2023-02-23T02:06:00;7.50;99.90
38902;DHT22;24661;53.566;9.910;2023-02-23T02:08:29;6.30;99.90
38902;DHT22;24661;53.566;9.910;2023-02-23T02:10:55;7.50;99.90
38902;DHT22;24661;53.566;9.910;2023-02-23T02:13:26;7.60;99.90
38902;DHT22;24661;53.566;9.910;2023-02-23T02:21:38;7.60;99.90
38902;DHT22;24661;53.566;9.910;2023-02-23T02:25:17;7.60;99.90
38902;DHT22;24661;53.566;9.910;2023-02-23T02:33:54;7.70;99.90
38902;DHT22;24661;53.566;9.910;2023-02-23T02:41:56;7.70;99.90
38902;DHT22;24661;53.566;9.910;2023-02-23T02:44:34;7.70;99.90
38902;DHT22;24661;53.566;9.910;2023-02-23T02:47:09;7.80;99.90
38902;DHT22;24661;53.566;9.910;2023-02-23T02:52:54;7.70;99.90
38902;DHT22;24661;53.566;9.910;2023-02-23T02:55:25;7.70;99.90
38902;DHT22;24661;53.566;9.910;2023-02-23T02:57:56;7.70;99.90
38902;DHT22;24661;53.566;9.910;2023-02-23T03:00:35;7.70;99.90
38902;DHT22;24661;53.566;9.910;2023-02-23T03:03:40;7.70;99.90
38902;DHT22;24661;53.566;9.910;2023-02-23T03:06:32;7.60;99.90
38902;DHT22;24661;53.566;9.910;2023-02-23T03:09:37;7.60;99.90
38902;DHT22;24661;53.566;9.910;2023-02-23T03:12:39;7.60;99.90
38902;DHT22;24661;53.566;9.910;2023-02-23T03:15:43;7.50;99.90
38902;DHT22;24661;53.566;9.910;2023-02-23T03:18:49;7.50;99.90
38902;DHT22;24661;53.566;9.910;2023-02-23T03:21:48;7.40;99.90
38902;DHT22;24661;53.566;9.910;2023-02-23T03:25:08;7.40;99.90
38902;DHT22;24661;53.566;9.910;2023-02-23T03:28:35;7.30;99.90
38902;DHT22;24661;53.566;9.910;2023-02-23T03:31:38;7.30;99.90
38902;DHT22;24661;53.566;9.910;2023-02-23T03:34:34;7.20;99.90
38902;DHT22;24661;53.566;9.910;2023-02-23T03:37:26;7.30;99.90
38902;DHT22;24661;53.566;9.910;2023-02-23T03:40:19;7.30;99.90
38902;DHT22;24661;53.566;9.910;2023-02-23T03:43:12;7.40;99.90
38902;DHT22;24661;53.566;9.910;2023-02-23T03:46:00;7.40;99.90
38902;DHT22;24661;53.566;9.910;2023-02-23T03:48:45;7.40;99.90
38902;DHT22;24661;53.566;9.910;2023-02-23T03:51:33;7.40;99.90
38902;DHT22;24661;53.566;9.910;2023-02-23T03:54:26;7.50;99.90
38902;DHT22;24661;53.566;9.910;2023-02-23T03:57:13;7.40;99.90
38902;DHT22;24661;53.566;9.910;2023-02-23T04:00:03;7.40;99.90
38902;DHT22;24661;53.566;9.910;2023-02-23T04:02:51;7.40;99.90
38902;DHT22;24661;53.566;9.910;2023-02-23T04:05:38;7.40;99.90
38902;DHT22;24661;53.566;9.910;2023-02-23T04:08:32;7.40;99.90
38902;DHT22;24661;53.566;9.910;2023-02-23T04:11:27;7.40;99.90
38902;DHT22;24661;53.566;9.910;2023-02-23T04:14:18;7.50;99.90
38902;DHT22;24661;53.566;9.910;2023-02-23T04:16:46;7.40;99.90
38902;DHT22;24661;53.566;9.910;2023-02-23T04:19:12;7.50;99.90
38902;DHT22;24661;53.566;9.910;2023-02-23T04:21:38;7.50;99.90
38902;DHT22;24661;53.566;9.910;2023-02-23T04:24:03;7.50;99.90
38902;DHT22;24661;53.566;9.910;2023-02-23T04:26:29;7.50;99.90
38902;DHT22;24661;53.566;9.910;2023-02-23T04:28:54;7.60;99.90
38902;DHT22;24661;53.566;9.910;2023-02-23T04:31:20;7.60;99.90
38902;DHT22;24661;53.566;9.910;2023-02-23T04:33:49;7.60;99.90
38902;DHT22;24661;53.566;9.910;2023-02-23T04:36:14;7.60;99.90
38902;DHT22;24661;53.566;9.910;2023-02-23T04:38:40;7.50;99.90
38902;DHT22;24661;53.566;9.910;2023-02-23T04:41:05;7.60;99.90
38902;DHT22;24661;53.566;9.910;2023-02-23T04:43:31;7.60;99.90
38902;DHT22;24661;53.566;9.910;2023-02-23T04:45:56;7.60;99.90
38902;DHT22;24661;53.566;9.910;2023-02-23T04:48:22;7.60;99.90
38902;DHT22;24661;53.566;9.910;2023-02-23T04:50:54;7.60;99.90
38902;DHT22;24661;53.566;9.910;2023-02-23T04:53:20;7.60;99.90
38902;DHT22;24661;53.566;9.910;2023-02-23T04:55:45;7.60;99.90
38902;DHT22;24661;53.566;9.910;2023-02-23T04:58:11;7.60;99.90
38902;DHT22;24661;53.566;9.910;2023-02-23T05:00:38;7.60;99.90
38902;DHT22;24661;53.566;9.910;2023-02-23T05:03:04;7.70;99.90
38902;DHT22;24661;53.566;9.910;2023-02-23T05:05:30;7.70;99.90
38902;DHT22;24661;53.566;9.910;2023-02-23T05:07:55;7.70;99.90
38902;DHT22;24661;53.566;9.910;2023-02-23T05:10:21;7.70;99.90
38902;DHT22;24661;53.566;9.910;2023-02-23T05:12:47;7.70;99.90
38902;DHT22;24661;53.566;9.910;2023-02-23T05:15:12;7.70;99.90
38902;DHT22;24661;53.566;9.910;2023-02-23T05:17:39;7.70;99.90
38902;DHT22;24661;53.566;9.910;2023-02-23T05:20:09;8.90;99.90
38902;DHT22;24661;53.566;9.910;2023-02-23T05:22:35;7.70;99.90
38902;DHT22;24661;53.566;9.910;2023-02-23T05:25:01;7.70;99.90
38902;DHT22;24661;53.566;9.910;2023-02-23T05:27:28;7.70;99.90
38902;DHT22;24661;53.566;9.910;2023-02-23T05:29:54;7.70;99.90
38902;DHT22;24661;53.566;9.910;2023-02-23T05:32:20;7.80;99.90
38902;DHT22;24661;53.566;9.910;2023-02-23T05:34:46;7.80;99.90
38902;DHT22;24661;53.566;9.910;2023-02-23T05:37:11;7.10;99.90
38902;DHT22;24661;53.566;9.910;2023-02-23T05:39:37;7.80;99.90
38902;DHT22;24661;53.566;9.910;2023-02-23T05:42:02;7.80;99.90
38902;DHT22;24661;53.566;9.910;2023-02-23T05:44:28;7.90;99.90
38902;DHT22;24661;53.566;9.910;2023-02-23T05:46:54;7.90;99.90
38902;DHT22;24661;53.566;9.910;2023-02-23T05:49:19;7.90;99.90
38902;DHT22;24661;53.566;9.910;2023-02-23T05:51:45;7.90;99.90
38902;DHT22;24661;53.566;9.910;2023-02-23T05:54:10;7.90;99.90
38902;DHT22;24661;53.566;9.910;2023-02-23T05:56:36;7.80;99.90
38902;DHT22;24661;53.566;9.910;2023-02-23T05:59:02;7.90;99.90
38902;DHT22;24661;53.566;9.910;2023-02-23T06:01:29;7.90;99.90
38902;DHT22;24661;53.566;9.910;2023-02-23T06:03:55;7.90;99.90
38902;DHT22;24661;53.566;9.910;2023-02-23T06:06:21;7.90;99.90
38902;DHT22;24661;53.566;9.910;2023-02-23T06:08:48;7.90;99.90
38902;DHT22;24661;53.566;9.910;2023-02-23T06:11:14;7.90;99.90
38902;DHT22;24661;53.566;9.910;2023-02-23T06:13:39;7.80;99.90
38902;DHT22;24661;53.566;9.910;2023-02-23T06:16:06;7.90;99.90
38902;DHT22;24661;53.566;9.910;2023-02-23T06:18:33;7.80;99.90
38902;DHT22;24661;53.566;9.910;2023-02-23T06:21:00;7.90;99.90
38902;DHT22;24661;53.566;9.910;2023-02-23T06:23:27;7.90;99.90
38902;DHT22;24661;53.566;9.910;2023-02-23T06:25:52;8.00;99.90
38902;DHT22;24661;53.566;9.910;2023-02-23T06:28:18;8.00;99.90
38902;DHT22;24661;53.566;9.910;2023-02-23T06:30:43;8.00;99.90
38902;DHT22;24661;53.566;9.910;2023-02-23T06:33:11;8.00;99.90
38902;DHT22;24661;53.566;9.910;2023-02-23T06:35:37;8.00;99.90
38902;DHT22;24661;53.566;9.910;2023-02-23T06:38:03;8.00;99.90
38902;DHT22;24661;53.566;9.910;2023-02-23T06:40:30;8.00;99.90
38902;DHT22;24661;53.566;9.910;2023-02-23T06:42:55;7.90;99.90
38902;DHT22;24661;53.566;9.910;2023-02-23T06:45:21;7.90;99.90
38902;DHT22;24661;53.566;9.910;2023-02-23T06:47:47;7.90;99.90
38902;DHT22;24661;53.566;9.910;2023-02-23T06:50:13;7.90;99.90
38902;DHT22;24661;53.566;9.910;2023-02-23T06:52:39;7.90;99.90
38902;DHT22;24661;53.566;9.910;2023-02-23T06:55:06;8.00;99.90
38902;DHT22;24661;53.566;9.910;2023-02-23T06:57:31;7.90;99.90
38902;DHT22;24661;53.566;9.910;2023-02-23T06:59:57;7.90;99.90
38902;DHT22;24661;53.566;9.910;2023-02-23T07:02:23;7.90;99.90
38902;DHT22;24661;53.566;9.910;2023-02-23T07:04:48;7.90;99.90
38902;DHT22;24661;53.566;9.910;2023-02-23T07:07:14;7.90;99.90
38902;DHT22;24661;53.566;9.910;2023-02-23T07:09:40;7.90;99.90
38902;DHT22;24661;53.566;9.910;2023-02-23T07:12:07;7.90;99.90
38902;DHT22;24661;53.566;9.910;2023-02-23T07:14:33;7.90;99.90
38902;DHT22;24661;53.566;9.910;2023-02-23T07:16:59;7.90;99.90
38902;DHT22;24661;53.566;9.910;2023-02-23T07:19:24;8.00;99.90
38902;DHT22;24661;53.566;9.910;2023-02-23T07:21:50;8.00;99.90
38902;DHT22;24661;53.566;9.910;2023-02-23T07:24:16;8.00;99.90
38902;DHT22;24661;53.566;9.910;2023-02-23T07:26:41;8.00;99.90
38902;DHT22;24661;53.566;9.910;2023-02-23T07:29:12;8.10;99.90
38902;DHT22;24661;53.566;9.910;2023-02-23T07:31:38;8.10;99.90
38902;DHT22;24661;53.566;9.910;2023-02-23T07:34:04;8.10;99.90
38902;DHT22;24661;53.566;9.910;2023-02-23T07:36:30;8.10;99.90
38902;DHT22;24661;53.566;9.910;2023-02-23T07:38:55;8.20;99.90
38902;DHT22;24661;53.566;9.910;2023-02-23T07:41:22;8.20;99.90
38902;DHT22;24661;53.566;9.910;2023-02-23T07:43:47;8.20;99.90
38902;DHT22;24661;53.566;9.910;2023-02-23T07:46:13;8.20;99.90
38902;DHT22;24661;53.566;9.910;2023-02-23T07:48:40;8.20;99.90
38902;DHT22;24661;53.566;9.910;2023-02-23T07:51:13;8.10;99.90
38902;DHT22;24661;53.566;9.910;2023-02-23T07:53:40;8.10;99.90
38902;DHT22;24661;53.566;9.910;2023-02-23T07:56:07;8.20;99.90
38902;DHT22;24661;53.566;9.910;2023-02-23T07:58:41;8.20;99.90
38902;DHT22;24661;53.566;9.910;2023-02-23T08:01:07;8.20;99.90
38902;DHT22;24661;53.566;9.910;2023-02-23T08:03:33;8.20;99.90
38902;DHT22;24661;53.566;9.910;2023-02-23T08:05:59;8.20;99.90
38902;DHT22;24661;53.566;9.910;2023-02-23T08:08:26;8.20;99.90
38902;DHT22;24661;53.566;9.910;2023-02-23T08:10:59;8.10;99.90
38902;DHT22;24661;53.566;9.910;2023-02-23T08:13:24;8.10;99.90
38902;DHT22;24661;53.566;9.910;2023-02-23T08:15:50;8.10;99.90
38902;DHT22;24661;53.566;9.910;2023-02-23T08:18:16;8.10;99.90
38902;DHT22;24661;53.566;9.910;2023-02-23T08:20:41;8.10;99.90
38902;DHT22;24661;53.566;9.910;2023-02-23T08:23:07;8.10;99.90
38902;DHT22;24661;53.566;9.910;2023-02-23T08:25:34;8.10;99.90
38902;DHT22;24661;53.566;9.910;2023-02-23T08:27:59;8.10;99.90
38902;DHT22;24661;53.566;9.910;2023-02-23T08:30:29;8.10;99.90
38902;DHT22;24661;53.566;9.910;2023-02-23T08:32:55;8.20;99.90
38902;DHT22;24661;53.566;9.910;2023-02-23T08:35:21;8.20;99.90
38902;DHT22;24661;53.566;9.910;2023-02-23T08:37:47;8.20;99.90
38902;DHT22;24661;53.566;9.910;2023-02-23T08:40:13;8.20;99.90
38902;DHT22;24661;53.566;9.910;2023-02-23T08:42:40;8.10;99.90
38902;DHT22;24661;53.566;9.910;2023-02-23T08:45:06;8.10;99.90
38902;DHT22;24661;53.566;9.910;2023-02-23T08:47:32;8.10;99.90
38902;DHT22;24661;53.566;9.910;2023-02-23T08:49:59;8.00;99.90
38902;DHT22;24661;53.566;9.910;2023-02-23T08:52:24;8.00;99.90
38902;DHT22;24661;53.566;9.910;2023-02-23T08:54:50;8.00;99.90
38902;DHT22;24661;53.566;9.910;2023-02-23T08:57:15;8.00;99.90
38902;DHT22;24661;53.566;9.910;2023-02-23T08:59:42;8.00;99.90
38902;DHT22;24661;53.566;9.910;2023-02-23T09:02:11;8.00;99.90
38902;DHT22;24661;53.566;9.910;2023-02-23T09:04:37;8.00;99.90
38902;DHT22;24661;53.566;9.910;2023-02-23T09:07:06;7.90;99.90
38902;DHT22;24661;53.566;9.910;2023-02-23T09:09:32;7.90;99.90
38902;DHT22;24661;53.566;9.910;2023-02-23T09:11:59;7.90;99.90
38902;DHT22;24661;53.566;9.910;2023-02-23T09:14:25;7.90;99.90
38902;DHT22;24661;53.566;9.910;2023-02-23T09:16:50;7.80;99.90
38902;DHT22;24661;53.566;9.910;2023-02-23T09:19:16;7.90;99.90
38902;DHT22;24661;53.566;9.910;2023-02-23T09:21:43;7.90;99.90
38902;DHT22;24661;53.566;9.910;2023-02-23T09:24:08;7.90;99.90
38902;DHT22;24661;53.566;9.910;2023-02-23T09:26:34;7.20;99.90
38902;DHT22;24661;53.566;9.910;2023-02-23T09:29:05;7.80;99.90
38902;DHT22;24661;53.566;9.910;2023-02-23T09:31:31;7.80;99.90
38902;DHT22;24661;53.566;9.910;2023-02-23T09:33:57;7.80;99.90
38902;DHT22;24661;53.566;9.910;2023-02-23T09:36:25;7.80;99.90
38902;DHT22;24661;53.566;9.910;2023-02-23T09:38:53;7.80;99.90
38902;DHT22;24661;53.566;9.910;2023-02-23T09:44:34;7.70;99.90
38902;DHT22;24661;53.566;9.910;2023-02-23T09:47:20;7.70;99.90
38902;DHT22;24661;53.566;9.910;2023-02-23T09:49:49;7.70;99.90
38902;DHT22;24661;53.566;9.910;2023-02-23T09:52:23;7.70;99.90
38902;DHT22;24661;53.566;9.910;2023-02-23T09:54:49;7.70;99.90
38902;DHT22;24661;53.566;9.910;2023-02-23T09:57:20;7.70;99.90
38902;DHT22;24661;53.566;9.910;2023-02-23T09:59:48;7.80;99.90
38902;DHT22;24661;53.566;9.910;2023-02-23T10:04:48;7.90;99.90
38902;DHT22;24661;53.566;9.910;2023-02-23T10:07:28;7.90;99.90
38902;DHT22;24661;53.566;9.910;2023-02-23T10:15:49;7.90;99.90
38902;DHT22;24661;53.566;9.910;2023-02-23T10:21:05;8.00;99.90
38902;DHT22;24661;53.566;9.910;2023-02-23T10:23:40;8.00;99.90
38902;DHT22;24661;53.566;9.910;2023-02-23T10:26:07;8.00;99.90
38902;DHT22;24661;53.566;9.910;2023-02-23T10:28:39;8.00;99.90
38902;DHT22;24661;53.566;9.910;2023-02-23T10:31:26;8.00;99.90
38902;DHT22;24661;53.566;9.910;2023-02-23T10:33:54;8.00;99.90
38902;DHT22;24661;53.566;9.910;2023-02-23T10:36:34;8.00;99.90
38902;DHT22;24661;53.566;9.910;2023-02-23T10:39:06;8.00;99.90
38902;DHT22;24661;53.566;9.910;2023-02-23T10:41:33;8.00;99.90
38902;DHT22;24661;53.566;9.910;2023-02-23T10:43:59;8.00;99.90
38902;DHT22;24661;53.566;9.910;2023-02-23T10:46:33;9.00;99.90
38902;DHT22;24661;53.566;9.910;2023-02-23T10:48:59;7.90;99.90
38902;DHT22;24661;53.566;9.910;2023-02-23T10:51:29;7.90;99.90
38902;DHT22;24661;53.566;9.910;2023-02-23T10:53:56;7.90;99.90
38902;DHT22;24661;53.566;9.910;2023-02-23T10:56:22;7.90;99.90
38902;DHT22;24661;53.566;9.910;2023-02-23T10:58:56;7.90;99.90
38902;DHT22;24661;53.566;9.910;2023-02-23T11:01:38;7.80;99.90
38902;DHT22;24661;53.566;9.910;2023-02-23T11:04:25;7.90;99.90
38902;DHT22;24661;53.566;9.910;2023-02-23T11:07:08;7.90;99.90
38902;DHT22;24661;53.566;9.910;2023-02-23T11:09:39;7.90;99.90
38902;DHT22;24661;53.566;9.910;2023-02-23T11:12:26;8.00;99.90
38902;DHT22;24661;53.566;9.910;2023-02-23T11:14:55;8.00;99.90
38902;DHT22;24661;53.566;9.910;2023-02-23T11:17:33;8.10;99.90
38902;DHT22;24661;53.566;9.910;2023-02-23T11:20:31;8.20;99.90
38902;DHT22;24661;53.566;9.910;2023-02-23T11:23:08;8.30;99.90
38902;DHT22;24661;53.566;9.910;2023-02-23T11:25:34;8.40;99.90
38902;DHT22;24661;53.566;9.910;2023-02-23T11:28:02;8.40;99.90
38902;DHT22;24661;53.566;9.910;2023-02-23T11:30:34;8.50;99.90
38902;DHT22;24661;53.566;9.910;2023-02-23T11:33:03;8.90;99.90
38902;DHT22;24661;53.566;9.910;2023-02-23T11:35:35;8.50;99.90
38902;DHT22;24661;53.566;9.910;2023-02-23T11:38:34;10.50;99.90
38902;DHT22;24661;53.566;9.910;2023-02-23T11:41:02;8.80;99.90
38902;DHT22;24661;53.566;9.910;2023-02-23T11:43:28;8.80;99.90
38902;DHT22;24661;53.566;9.910;2023-02-23T11:45:56;8.80;99.90
38902;DHT22;24661;53.566;9.910;2023-02-23T11:48:30;8.90;99.90
38902;DHT22;24661;53.566;9.910;2023-02-23T11:50:57;8.90;99.90
38902;DHT22;24661;53.566;9.910;2023-02-23T11:53:34;8.90;99.90
38902;DHT22;24661;53.566;9.910;2023-02-23T11:56:02;8.80;99.90
38902;DHT22;24661;53.566;9.910;2023-02-23T11:58:46;8.90;99.90
38902;DHT22;24661;53.566;9.910;2023-02-23T12:01:17;8.90;99.90
38902;DHT22;24661;53.566;9.910;2023-02-23T12:03:55;8.90;99.90
38902;DHT22;24661;53.566;9.910;2023-02-23T12:06:33;8.90;99.90
38902;DHT22;24661;53.566;9.910;2023-02-23T12:11:54;8.90;99.90
38902;DHT22;24661;53.566;9.910;2023-02-23T12:17:15;8.90;99.90
38902;DHT22;24661;53.566;9.910;2023-02-23T12:19:49;8.90;99.90
38902;DHT22;24661;53.566;9.910;2023-02-23T12:22:19;9.00;99.90
38902;DHT22;24661;53.566;9.910;2023-02-23T12:24:56;8.90;99.90
38902;DHT22;24661;53.566;9.910;2023-02-23T12:27:28;8.90;99.90
38902;DHT22;24661;53.566;9.910;2023-02-23T12:30:20;8.90;99.90
38902;DHT22;24661;53.566;9.910;2023-02-23T12:32:53;8.90;99.90
38902;DHT22;24661;53.566;9.910;2023-02-23T12:35:22;8.80;99.90
38902;DHT22;24661;53.566;9.910;2023-02-23T12:38:16;8.80;99.90
38902;DHT22;24661;53.566;9.910;2023-02-23T12:40:44;8.80;99.90
38902;DHT22;24661;53.566;9.910;2023-02-23T12:43:26;8.80;99.90
38902;DHT22;24661;53.566;9.910;2023-02-23T12:46:01;8.80;99.90
38902;DHT22;24661;53.566;9.910;2023-02-23T12:51:15;8.80;99.90
38902;DHT22;24661;53.566;9.910;2023-02-23T12:53:43;8.80;99.90
38902;DHT22;24661;53.566;9.910;2023-02-23T12:56:36;8.80;99.90
38902;DHT22;24661;53.566;9.910;2023-02-23T12:59:30;8.80;99.90
38902;DHT22;24661;53.566;9.910;2023-02-23T13:02:11;8.80;99.90
38902;DHT22;24661;53.566;9.910;2023-02-23T13:10:43;8.70;99.90
38902;DHT22;24661;53.566;9.910;2023-02-23T13:21:19;8.80;99.90
38902;DHT22;24661;53.566;9.910;2023-02-23T13:24:11;8.70;99.90
38902;DHT22;24661;53.566;9.910;2023-02-23T13:26:50;8.70;99.90
38902;DHT22;24661;53.566;9.910;2023-02-23T13:29:32;8.70;99.90
38902;DHT22;24661;53.566;9.910;2023-02-23T13:32:00;8.70;99.90
38902;DHT22;24661;53.566;9.910;2023-02-23T13:34:30;8.70;99.90
38902;DHT22;24661;53.566;9.910;2023-02-23T13:36:59;8.60;99.90
38902;DHT22;24661;53.566;9.910;2023-02-23T13:39:46;8.60;99.90
38902;DHT22;24661;53.566;9.910;2023-02-23T13:42:29;8.60;99.90
38902;DHT22;24661;53.566;9.910;2023-02-23T13:45:04;8.60;99.90
38902;DHT22;24661;53.566;9.910;2023-02-23T13:52:53;8.80;99.90
38902;DHT22;24661;53.566;9.910;2023-02-23T13:58:14;8.90;99.90
38902;DHT22;24661;53.566;9.910;2023-02-23T14:00:41;8.90;99.90
38902;DHT22;24661;53.566;9.910;2023-02-23T14:03:24;8.80;99.90
38902;DHT22;24661;53.566;9.910;2023-02-23T14:05:55;8.90;99.90
38902;DHT22;24661;53.566;9.910;2023-02-23T14:08:37;8.90;99.90
38902;DHT22;24661;53.566;9.910;2023-02-23T14:11:04;8.80;99.90
38902;DHT22;24661;53.566;9.910;2023-02-23T14:13:32;8.80;99.90
38902;DHT22;24661;53.566;9.910;2023-02-23T14:16:27;8.70;99.90
38902;DHT22;24661;53.566;9.910;2023-02-23T14:21:41;8.80;99.90
38902;DHT22;24661;53.566;9.910;2023-02-23T14:24:20;8.80;99.90
38902;DHT22;24661;53.566;9.910;2023-02-23T14:30:11;8.70;99.90
38902;DHT22;24661;53.566;9.910;2023-02-23T14:32:38;8.70;99.90
38902;DHT22;24661;53.566;9.910;2023-02-23T14:35:07;8.70;99.90
38902;DHT22;24661;53.566;9.910;2023-02-23T14:37:57;8.70;99.90
38902;DHT22;24661;53.566;9.910;2023-02-23T14:40:37;8.70;99.90
38902;DHT22;24661;53.566;9.910;2023-02-23T14:43:38;8.70;99.90
38902;DHT22;24661;53.566;9.910;2023-02-23T14:46:20;8.80;99.90
38902;DHT22;24661;53.566;9.910;2023-02-23T14:49:05;8.80;99.90
38902;DHT22;24661;53.566;9.910;2023-02-23T14:51:46;8.80;99.90
38902;DHT22;24661;53.566;9.910;2023-02-23T14:56:49;8.80;99.90
38902;DHT22;24661;53.566;9.910;2023-02-23T14:59:22;8.80;99.90
38902;DHT22;24661;53.566;9.910;2023-02-23T15:01:50;8.80;99.90
38902;DHT22;24661;53.566;9.910;2023-02-23T15:04:24;8.80;99.90
38902;DHT22;24661;53.566;9.910;2023-02-23T15:06:54;8.80;99.90
38902;DHT22;24661;53.566;9.910;2023-02-23T15:09:34;8.80;99.90
38902;DHT22;24661;53.566;9.910;2023-02-23T15:12:07;8.80;99.90
38902;DHT22;24661;53.566;9.910;2023-02-23T15:14:36;8.80;99.90
38902;DHT22;24661;53.566;9.910;2023-02-23T15:17:03;8.80;99.90
38902;DHT22;24661;53.566;9.910;2023-02-23T15:19:34;8.80;99.90
38902;DHT22;24661;53.566;9.910;2023-02-23T15:22:02;8.80;99.90
38902;DHT22;24661;53.566;9.910;2023-02-23T15:24:47;8.80;99.90
38902;DHT22;24661;53.566;9.910;2023-02-23T15:27:22;8.70;99.90
38902;DHT22;24661;53.566;9.910;2023-02-23T15:29:50;8.70;99.90
38902;DHT22;24661;53.566;9.910;2023-02-23T15:32:24;8.60;99.90
38902;DHT22;24661;53.566;9.910;2023-02-23T15:34:51;8.60;99.90
38902;DHT22;24661;53.566;9.910;2023-02-23T15:37:35;8.50;99.90
38902;DHT22;24661;53.566;9.910;2023-02-23T15:40:21;8.40;99.90
38902;DHT22;24661;53.566;9.910;2023-02-23T15:42:50;8.30;99.90
38902;DHT22;24661;53.566;9.910;2023-02-23T15:45:19;8.20;99.90
38902;DHT22;24661;53.566;9.910;2023-02-23T15:47:47;8.30;99.90
38902;DHT22;24661;53.566;9.910;2023-02-23T15:50:16;8.20;99.90
38902;DHT22;24661;53.566;9.910;2023-02-23T15:52:48;8.10;99.90
38902;DHT22;24661;53.566;9.910;2023-02-23T15:55:23;8.00;99.90
38902;DHT22;24661;53.566;9.910;2023-02-23T15:57:57;8.00;99.90
38902;DHT22;24661;53.566;9.910;2023-02-23T16:00:36;7.90;99.90
38902;DHT22;24661;53.566;9.910;2023-02-23T16:03:03;7.90;99.90
38902;DHT22;24661;53.566;9.910;2023-02-23T16:05:33;7.90;99.90
38902;DHT22;24661;53.566;9.910;2023-02-23T16:08:19;7.80;99.90
38902;DHT22;24661;53.566;9.910;2023-02-23T16:10:49;7.80;99.90
38902;DHT22;24661;53.566;9.910;2023-02-23T16:13:19;7.70;99.90
38902;DHT22;24661;53.566;9.910;2023-02-23T16:15:45;7.60;99.90
38902;DHT22;24661;53.566;9.910;2023-02-23T16:18:14;8.80;99.90
38902;DHT22;24661;53.566;9.910;2023-02-23T16:20:53;7.70;99.90
38902;DHT22;24661;53.566;9.910;2023-02-23T16:23:26;7.60;99.90
38902;DHT22;24661;53.566;9.910;2023-02-23T16:25:58;7.60;99.90
38902;DHT22;24661;53.566;9.910;2023-02-23T16:28:30;7.50;99.90
38902;DHT22;24661;53.566;9.910;2023-02-23T16:31:00;7.50;99.90
38902;DHT22;24661;53.566;9.910;2023-02-23T16:33:29;7.40;99.90
38902;DHT22;24661;53.566;9.910;2023-02-23T16:38:40;7.40;99.90
38902;DHT22;24661;53.566;9.910;2023-02-23T16:41:19;7.30;99.90
38902;DHT22;24661;53.566;9.910;2023-02-23T16:43:51;7.30;99.90
38902;DHT22;24661;53.566;9.910;2023-02-23T16:46:18;7.10;99.90
38902;DHT22;24661;53.566;9.910;2023-02-23T16:48:46;7.20;99.90
38902;DHT22;24661;53.566;9.910;2023-02-23T16:51:17;7.10;99.90
38902;DHT22;24661;53.566;9.910;2023-02-23T16:53:43;7.00;99.90
38902;DHT22;24661;53.566;9.910;2023-02-23T16:56:14;7.00;99.90
38902;DHT22;24661;53.566;9.910;2023-02-23T16:58:45;6.90;99.90
38902;DHT22;24661;53.566;9.910;2023-02-23T17:01:12;6.90;99.90
38902;DHT22;24661;53.566;9.910;2023-02-23T17:03:39;6.90;99.90
38902;DHT22;24661;53.566;9.910;2023-02-23T17:06:05;6.80;99.90
38902;DHT22;24661;53.566;9.910;2023-02-23T17:08:31;6.70;99.90
38902;DHT22;24661;53.566;9.910;2023-02-23T17:10:59;6.70;99.90
38902;DHT22;24661;53.566;9.910;2023-02-23T17:13:26;6.70;99.90
38902;DHT22;24661;53.566;9.910;2023-02-23T17:15:54;6.70;99.90
38902;DHT22;24661;53.566;9.910;2023-02-23T17:18:23;6.60;99.90
38902;DHT22;24661;53.566;9.910;2023-02-23T17:20:50;6.60;99.90
38902;DHT22;24661;53.566;9.910;2023-02-23T17:23:16;6.60;99.90
38902;DHT22;24661;53.566;9.910;2023-02-23T17:25:41;6.60;99.90
38902;DHT22;24661;53.566;9.910;2023-02-23T17:28:07;6.50;99.90
38902;DHT22;24661;53.566;9.910;2023-02-23T17:30:34;6.50;99.90
38902;DHT22;24661;53.566;9.910;2023-02-23T17:33:01;6.50;99.90